createdAt,value
2023-01-07T00:00:23.851Z,2.00
2023-01-07T00:02:53.702Z,2.73
2023-01-07T00:05:23.599Z,2.02
2023-01-07T00:07:53.347Z,2.20
2023-01-07T00:10:23.071Z,2.10
2023-01-07T00:12:53.139Z,3.22
2023-01-07T00:15:22.716Z,2.00
2023-01-07T00:17:52.474Z,2.50
2023-01-07T00:20:22.224Z,2.13
2023-01-07T00:22:52.544Z,2.60
2023-01-07T00:25:22.220Z,2.60
2023-01-07T00:27:52.121Z,2.30
2023-01-07T00:30:22.366Z,2.47
2023-01-07T00:33:02.196Z,2.40
2023-01-07T00:35:34.397Z,3.10
2023-01-07T00:38:06.620Z,3.23
2023-01-07T00:40:38.075Z,2.57
2023-01-07T00:43:07.715Z,2.33
2023-01-07T00:45:39.124Z,2.10
2023-01-07T00:48:09.768Z,2.63
2023-01-07T00:50:40.580Z,2.58
2023-01-07T00:53:11.963Z,2.58
2023-01-07T00:55:41.858Z,2.83
2023-01-07T00:58:20.943Z,1.70
2023-01-07T01:00:52.889Z,1.85
2023-01-07T01:05:51.642Z,2.15
2023-01-07T01:08:23.587Z,2.60
2023-01-07T01:10:53.356Z,2.37
2023-01-07T01:13:22.885Z,1.53
2023-01-07T01:15:52.685Z,2.63
2023-01-07T01:18:22.558Z,2.30
2023-01-07T01:20:52.298Z,2.00
2023-01-07T01:23:22.255Z,1.98
2023-01-07T01:25:52.067Z,2.77
2023-01-07T01:28:21.578Z,2.23
2023-01-07T01:30:56.125Z,2.90
2023-01-07T01:33:26.449Z,1.63
2023-01-07T01:35:56.341Z,2.27
2023-01-07T01:38:26.060Z,2.23
2023-01-07T01:40:55.877Z,1.77
2023-01-07T01:43:28.844Z,2.13
2023-01-07T01:46:01.691Z,3.20
2023-01-07T01:48:33.796Z,1.77
2023-01-07T01:51:04.990Z,1.70
2023-01-07T01:53:36.808Z,1.93
2023-01-07T01:56:10.038Z,1.93
2023-01-07T01:58:48.669Z,2.03
2023-01-07T02:01:19.187Z,1.80
2023-01-07T02:03:50.656Z,1.62
2023-01-07T02:06:29.297Z,2.20
2023-01-07T02:08:59.204Z,2.03
2023-01-07T02:11:35.286Z,1.80
2023-01-07T02:14:41.391Z,1.67
2023-01-07T02:17:14.233Z,1.60
2023-01-07T02:19:55.550Z,1.57
2023-01-07T02:22:28.114Z,2.62
2023-01-07T02:25:21.888Z,1.97
2023-01-07T02:27:57.495Z,1.33
2023-01-07T02:30:30.389Z,1.97
2023-01-07T02:33:15.919Z,2.10
2023-01-07T02:35:48.792Z,1.93
2023-01-07T02:38:21.621Z,2.03
2023-01-07T02:41:12.594Z,1.80
2023-01-07T02:44:13.380Z,2.30
2023-01-07T02:46:48.934Z,1.65
2023-01-07T02:49:19.678Z,1.90
2023-01-07T02:51:49.580Z,1.60
2023-01-07T02:54:22.123Z,1.37
2023-01-07T02:57:14.893Z,1.70
2023-01-07T03:00:09.763Z,1.50
2023-01-07T03:03:01.945Z,1.20
2023-01-07T03:05:44.816Z,1.20
2023-01-07T03:08:26.449Z,1.87
2023-01-07T03:11:05.957Z,2.40
2023-01-07T03:13:51.374Z,1.32
2023-01-07T03:19:31.663Z,1.60
2023-01-07T03:22:04.502Z,1.30
2023-01-07T03:24:34.975Z,1.60
2023-01-07T03:27:07.232Z,1.77
2023-01-07T03:29:37.389Z,1.50
2023-01-07T03:32:13.202Z,2.63
2023-01-07T03:34:44.452Z,1.90
2023-01-07T03:37:20.161Z,1.95
2023-01-07T03:39:51.347Z,2.60
2023-01-07T03:45:19.170Z,1.75
2023-01-07T03:47:51.756Z,1.73
2023-01-07T03:50:22.532Z,1.83
2023-01-07T03:52:52.630Z,3.05
2023-01-07T03:55:22.939Z,1.90
2023-01-07T03:57:53.743Z,1.95
2023-01-07T04:00:26.080Z,2.23
2023-01-07T04:02:57.851Z,2.35
2023-01-07T04:05:29.066Z,2.00
2023-01-07T04:07:59.351Z,2.43
2023-01-07T04:10:30.844Z,1.97
2023-01-07T04:13:00.790Z,2.57
2023-01-07T04:15:30.789Z,2.20
2023-01-07T04:18:00.568Z,2.13
2023-01-07T04:20:30.735Z,2.60
2023-01-07T04:23:01.184Z,2.03
2023-01-07T04:25:32.706Z,1.80
2023-01-07T04:28:04.401Z,1.90
2023-01-07T04:30:35.493Z,2.00
2023-01-07T04:33:07.319Z,2.00
2023-01-07T04:35:37.236Z,1.90
2023-01-07T04:38:07.532Z,1.85
2023-01-07T04:40:37.029Z,9.83
2023-01-07T04:43:07.104Z,2.73
2023-01-07T04:45:37.338Z,2.73
2023-01-07T04:48:08.516Z,2.37
2023-01-07T04:50:38.320Z,2.20
2023-01-07T04:53:08.528Z,2.60
2023-01-07T04:55:39.672Z,2.10
2023-01-07T04:58:09.421Z,2.10
2023-01-07T05:00:39.855Z,2.33
2023-01-07T05:03:12.506Z,2.20
2023-01-07T05:05:42.697Z,2.53
2023-01-07T05:08:14.239Z,2.13
2023-01-07T05:10:44.291Z,2.43
2023-01-07T05:13:17.134Z,2.22
2023-01-07T05:15:47.917Z,2.40
2023-01-07T05:18:18.228Z,2.30
2023-01-07T05:20:48.365Z,1.83
2023-01-07T05:23:18.232Z,2.90
2023-01-07T05:25:48.186Z,2.70
2023-01-07T05:28:18.056Z,3.03
2023-01-07T05:30:48.511Z,3.67
2023-01-07T05:33:18.063Z,2.15
2023-01-07T05:35:49.565Z,2.70
2023-01-07T05:38:19.725Z,2.77
2023-01-07T05:40:50.306Z,2.80
2023-01-07T05:43:21.775Z,2.43
2023-01-07T05:45:52.612Z,3.10
2023-01-07T05:48:22.300Z,3.30
2023-01-07T05:50:52.177Z,2.90
2023-01-07T05:53:21.750Z,2.33
2023-01-07T05:56:00.073Z,3.63
2023-01-07T05:58:30.454Z,3.00
2023-01-07T06:01:00.451Z,2.70
2023-01-07T06:03:30.670Z,3.02
2023-01-07T06:06:02.089Z,3.53
2023-01-07T06:08:31.892Z,3.67
2023-01-07T06:11:01.864Z,2.97
2023-01-07T06:13:31.898Z,2.47
2023-01-07T06:16:09.896Z,4.00
2023-01-07T06:18:39.976Z,4.65
2023-01-07T06:21:09.486Z,3.63
2023-01-07T06:23:39.487Z,3.47
2023-01-07T06:26:09.073Z,4.33
2023-01-07T06:28:38.886Z,4.37
2023-01-07T06:31:12.809Z,4.20
2023-01-07T06:33:42.672Z,4.03
2023-01-07T06:36:12.592Z,5.50
2023-01-07T06:38:42.401Z,3.43
2023-01-07T06:41:12.156Z,2.93
2023-01-07T06:43:42.044Z,3.37
2023-01-07T06:46:11.867Z,3.23
2023-01-07T06:48:41.715Z,3.87
2023-01-07T06:51:11.281Z,2.73
2023-01-07T06:53:41.069Z,3.77
2023-01-07T06:56:10.805Z,3.83
2023-01-07T06:58:40.595Z,3.53
2023-01-07T07:01:10.530Z,3.30
2023-01-07T07:03:40.276Z,3.17
2023-01-07T07:06:10.469Z,3.57
2023-01-07T07:08:41.035Z,3.53
2023-01-07T07:13:39.624Z,2.58
2023-01-07T07:16:09.332Z,4.33
2023-01-07T07:18:39.102Z,4.73
2023-01-07T07:21:09.293Z,4.40
2023-01-07T07:23:39.070Z,3.67
2023-01-07T07:26:10.044Z,3.90
2023-01-07T07:28:41.430Z,3.93
2023-01-07T07:31:11.485Z,4.10
2023-01-07T07:33:41.259Z,4.47
2023-01-07T07:36:10.933Z,3.43
2023-01-07T07:38:40.967Z,3.87
2023-01-07T07:41:10.543Z,4.77
2023-01-07T07:43:40.368Z,4.97
2023-01-07T07:46:10.269Z,4.40
2023-01-07T07:48:40.969Z,4.00
2023-01-07T07:51:10.491Z,4.42
2023-01-07T07:53:40.240Z,4.93
2023-01-07T07:56:10.884Z,4.13
2023-01-07T07:58:43.967Z,5.57
2023-01-07T08:01:13.594Z,4.13
2023-01-07T08:03:43.471Z,5.20
2023-01-07T08:06:15.054Z,4.87
2023-01-07T08:08:44.922Z,4.50
2023-01-07T08:11:14.472Z,7.13
2023-01-07T08:13:44.332Z,6.37
2023-01-07T08:16:14.236Z,13.63
2023-01-07T08:18:45.164Z,11.03
2023-01-07T08:21:14.951Z,12.90
2023-01-07T08:23:44.747Z,9.20
2023-01-07T08:26:14.259Z,9.83
2023-01-07T08:28:46.468Z,10.23
2023-01-07T08:31:16.638Z,9.58
2023-01-07T08:33:46.649Z,14.23
2023-01-07T08:36:23.079Z,15.23
2023-01-07T08:38:53.783Z,11.70
2023-01-07T08:41:24.802Z,18.43
2023-01-07T08:43:55.077Z,13.83
2023-01-07T08:46:25.009Z,11.80
2023-01-07T08:48:54.913Z,14.37
2023-01-07T08:51:24.376Z,12.57
2023-01-07T08:53:55.349Z,13.20
2023-01-07T08:58:53.535Z,10.00
2023-01-07T09:01:23.171Z,9.60
2023-01-07T09:03:53.203Z,9.60
2023-01-07T09:06:23.501Z,9.67
2023-01-07T09:08:53.331Z,10.53
2023-01-07T09:11:23.159Z,9.90
2023-01-07T09:13:52.919Z,9.47
2023-01-07T09:16:23.669Z,9.90
2023-01-07T09:18:53.451Z,8.73
2023-01-07T09:21:23.149Z,13.93
2023-01-07T09:23:57.130Z,13.97
2023-01-07T09:26:27.335Z,12.27
2023-01-07T09:28:57.200Z,9.37
2023-01-07T09:31:27.083Z,10.07
2023-01-07T09:33:58.982Z,11.75
2023-01-07T09:36:28.496Z,11.80
2023-01-07T09:38:58.281Z,9.40
2023-01-07T09:41:34.101Z,8.83
2023-01-07T09:44:25.498Z,8.93
2023-01-07T09:46:57.228Z,9.10
2023-01-07T09:49:32.280Z,9.07
2023-01-07T09:52:10.850Z,9.43
2023-01-07T09:54:42.053Z,7.37
2023-01-07T09:57:14.577Z,8.63
2023-01-07T09:59:47.179Z,8.47
2023-01-07T10:02:37.655Z,6.92
2023-01-07T10:05:21.761Z,7.77
2023-01-07T10:08:29.475Z,6.10
2023-01-07T10:10:38.629Z,8.20
2023-01-07T10:13:31.091Z,6.93
2023-01-07T10:16:12.286Z,6.58
2023-01-07T10:19:18.989Z,7.07
2023-01-07T10:21:57.837Z,6.00
2023-01-07T10:24:35.249Z,5.73
2023-01-07T10:27:11.165Z,6.20
2023-01-07T10:29:50.830Z,5.90
2023-01-07T10:32:24.098Z,5.93
2023-01-07T10:34:56.896Z,5.70
2023-01-07T10:37:36.065Z,5.30
2023-01-07T10:40:24.216Z,5.95
2023-01-07T10:42:57.352Z,5.87
2023-01-07T10:45:33.113Z,5.63
2023-01-07T10:48:09.015Z,5.93
2023-01-07T10:51:04.585Z,6.10
2023-01-07T10:53:42.064Z,5.77
2023-01-07T10:56:26.616Z,3.92
2023-01-07T10:58:58.404Z,4.53
2023-01-07T11:01:38.348Z,3.80
2023-01-07T11:04:18.210Z,4.23
2023-01-07T11:07:04.144Z,4.90
2023-01-07T11:09:45.436Z,4.57
2023-01-07T11:12:33.092Z,5.62
2023-01-07T11:15:05.969Z,4.93
2023-01-07T11:17:53.565Z,4.87
2023-01-07T11:20:57.666Z,5.33
2023-01-07T11:23:36.898Z,4.67
2023-01-07T11:26:15.941Z,3.93
2023-01-07T11:28:54.456Z,4.40
2023-01-07T11:31:27.181Z,3.03
2023-01-07T11:34:02.800Z,3.30
2023-01-07T11:36:42.879Z,2.53
2023-01-07T11:39:15.680Z,2.20
2023-01-07T11:42:00.532Z,2.00
2023-01-07T11:44:30.360Z,2.13
2023-01-07T11:47:00.305Z,1.97
2023-01-07T11:49:32.061Z,1.70
2023-01-07T11:52:02.829Z,1.93
2023-01-07T11:54:33.576Z,1.52
2023-01-07T11:57:14.868Z,1.80
2023-01-07T11:59:44.987Z,2.17
2023-01-07T12:02:26.813Z,1.63
2023-01-07T12:05:11.333Z,1.93
2023-01-07T12:07:44.211Z,2.20
2023-01-07T12:10:32.142Z,2.17
2023-01-07T12:13:05.185Z,1.98
2023-01-07T12:15:38.392Z,1.65
2023-01-07T12:18:15.508Z,2.47
2023-01-07T12:20:59.014Z,2.03
2023-01-07T12:23:31.871Z,2.37
2023-01-07T12:26:07.521Z,1.77
2023-01-07T12:29:00.003Z,2.03
2023-01-07T12:31:51.143Z,1.73
2023-01-07T12:34:42.081Z,2.17
2023-01-07T12:37:38.166Z,2.20
2023-01-07T12:40:20.211Z,1.40
2023-01-07T12:42:55.755Z,1.93
2023-01-07T12:45:37.687Z,1.53
2023-01-07T12:48:10.684Z,1.70
2023-01-07T12:50:43.733Z,2.17
2023-01-07T12:53:22.157Z,2.30
2023-01-07T12:55:55.053Z,1.60
2023-01-07T12:58:49.749Z,2.23
2023-01-07T13:01:32.937Z,1.62
2023-01-07T13:04:09.327Z,1.47
2023-01-07T13:06:57.667Z,1.65
2023-01-07T13:09:40.616Z,2.23
2023-01-07T13:12:41.638Z,2.13
2023-01-07T13:15:12.906Z,2.50
2023-01-07T13:17:44.787Z,2.93
2023-01-07T13:20:16.203Z,2.00
2023-01-07T13:22:55.940Z,1.93
2023-01-07T13:25:54.423Z,1.82
2023-01-07T13:28:40.752Z,2.27
2023-01-07T13:31:30.157Z,1.70
2023-01-07T13:34:28.582Z,2.13
2023-01-07T13:37:31.189Z,1.57
2023-01-07T13:40:31.675Z,1.92
2023-01-07T13:43:31.569Z,1.90
2023-01-07T13:46:04.447Z,1.70
2023-01-07T13:48:34.842Z,1.70
2023-01-07T13:51:07.628Z,0.90
2023-01-07T13:53:45.071Z,1.40
2023-01-07T13:56:23.536Z,1.23
2023-01-07T13:58:58.087Z,1.00
2023-01-07T14:01:34.040Z,1.23
2023-01-07T14:04:09.750Z,1.10
2023-01-07T14:06:48.784Z,1.63
2023-01-07T14:09:25.905Z,1.00
2023-01-07T14:12:13.753Z,1.77
2023-01-07T14:14:49.731Z,1.10
2023-01-07T14:17:38.907Z,1.50
2023-01-07T14:20:26.540Z,1.20
2023-01-07T14:23:11.953Z,1.17
2023-01-07T14:25:50.123Z,0.90
2023-01-07T14:28:39.740Z,0.85
2023-01-07T14:31:18.024Z,1.50
2023-01-07T14:33:52.293Z,1.50
2023-01-07T14:36:28.254Z,1.30
2023-01-07T14:39:00.383Z,1.32
2023-01-07T14:41:33.064Z,1.37
2023-01-07T14:44:10.756Z,1.35
2023-01-07T14:46:45.736Z,1.87
2023-01-07T14:49:27.605Z,1.15
2023-01-07T14:52:18.756Z,1.67
2023-01-07T14:55:06.973Z,2.25
2023-01-07T15:01:44.513Z,1.97
2023-01-07T15:04:53.274Z,2.93
2023-01-07T15:07:28.527Z,1.72
2023-01-07T15:10:19.029Z,2.07
2023-01-07T15:13:09.311Z,2.30
2023-01-07T15:15:58.463Z,2.60
2023-01-07T15:18:47.617Z,3.35
2023-01-07T15:21:38.175Z,4.60
2023-01-07T15:24:27.593Z,4.23
2023-01-07T15:27:18.734Z,2.90
2023-01-07T15:30:06.082Z,3.17
2023-01-07T15:32:57.038Z,2.77
2023-01-07T15:35:32.576Z,2.93
2023-01-07T15:38:05.184Z,2.37
2023-01-07T15:40:35.299Z,2.20
2023-01-07T15:43:06.263Z,3.05
2023-01-07T15:45:36.166Z,2.72
2023-01-07T15:48:09.696Z,4.00
2023-01-07T15:50:40.890Z,3.03
2023-01-07T15:53:16.591Z,3.66
2023-01-07T15:55:52.513Z,2.72
2023-01-07T15:58:47.900Z,2.98
2023-01-07T16:01:20.319Z,2.57
2023-01-07T16:03:57.841Z,2.13
2023-01-07T16:06:36.673Z,1.90
2023-01-07T16:09:16.444Z,2.17
2023-01-07T16:11:47.038Z,3.10
2023-01-07T16:14:22.590Z,2.00
2023-01-07T16:17:12.075Z,2.00
2023-01-07T16:19:43.594Z,2.37
2023-01-07T16:22:18.661Z,2.17
2023-01-07T16:24:54.261Z,2.52
2023-01-07T16:27:26.806Z,2.43
2023-01-07T16:30:01.408Z,2.17
2023-01-07T16:32:34.525Z,2.80
2023-01-07T16:35:07.358Z,2.53
2023-01-07T16:37:40.071Z,2.80
2023-01-07T16:40:12.753Z,2.30
2023-01-07T16:42:45.652Z,3.30
2023-01-07T16:45:35.889Z,2.27
2023-01-07T16:48:19.855Z,1.80
2023-01-07T16:50:53.326Z,2.90
2023-01-07T16:53:33.418Z,2.73
2023-01-07T16:56:15.780Z,2.73
2023-01-07T16:58:55.456Z,4.23
2023-01-07T17:01:34.650Z,4.25
2023-01-07T17:04:07.742Z,3.57
2023-01-07T17:06:43.189Z,4.47
2023-01-07T17:09:36.814Z,4.20
2023-01-07T17:12:07.513Z,4.37
2023-01-07T17:14:43.149Z,4.70
2023-01-07T17:17:21.903Z,5.10
2023-01-07T17:19:54.868Z,4.87
2023-01-07T17:22:37.548Z,4.77
2023-01-07T17:25:16.023Z,4.30
2023-01-07T17:28:08.574Z,4.03
2023-01-07T17:30:38.651Z,4.63
2023-01-07T17:33:10.036Z,5.20
2023-01-07T17:38:15.051Z,3.40
2023-01-07T17:40:46.089Z,4.47
2023-01-07T17:43:33.847Z,3.98
2023-01-07T17:46:06.919Z,4.33
2023-01-07T17:48:37.242Z,3.80
2023-01-07T17:51:08.308Z,5.70
2023-01-07T17:53:42.017Z,4.42
2023-01-07T17:56:11.600Z,5.03
2023-01-07T17:58:41.828Z,6.40
2023-01-07T18:01:14.352Z,7.10
2023-01-07T18:03:47.273Z,5.93
2023-01-07T18:06:25.427Z,5.80
2023-01-07T18:08:56.584Z,7.10
2023-01-07T18:11:46.888Z,7.07
2023-01-07T18:14:17.119Z,7.23
2023-01-07T18:16:47.487Z,7.80
2023-01-07T18:19:17.151Z,7.93
2023-01-07T18:21:47.050Z,7.77
2023-01-07T18:24:20.675Z,6.73
2023-01-07T18:26:54.070Z,11.20
2023-01-07T18:29:24.030Z,10.40
2023-01-07T18:31:53.922Z,11.00
2023-01-07T18:34:23.903Z,10.83
2023-01-07T18:36:54.400Z,11.50
2023-01-07T18:39:29.266Z,12.10
2023-01-07T18:42:00.447Z,12.37
2023-01-07T18:44:30.462Z,16.62
2023-01-07T18:47:00.266Z,13.90
2023-01-07T18:49:30.395Z,16.45
2023-01-07T18:52:00.839Z,14.17
2023-01-07T18:54:32.260Z,14.33
2023-01-07T18:57:02.550Z,14.83
2023-01-07T18:59:32.411Z,16.77
2023-01-07T19:02:02.899Z,18.00
2023-01-07T19:04:34.377Z,17.23
2023-01-07T19:07:04.591Z,16.73
2023-01-07T19:09:34.442Z,16.40
2023-01-07T19:12:04.899Z,18.73
2023-01-07T19:14:35.526Z,17.00
2023-01-07T19:17:07.800Z,17.64
2023-01-07T19:19:47.897Z,18.17
2023-01-07T19:22:10.722Z,18.37
2023-01-07T19:24:40.566Z,14.33
2023-01-07T19:27:10.509Z,14.40
2023-01-07T19:29:49.958Z,11.53
2023-01-07T19:32:19.616Z,14.97
2023-01-07T19:34:51.299Z,14.40
2023-01-07T19:37:22.153Z,14.03
2023-01-07T19:39:53.598Z,13.75
2023-01-07T19:42:24.372Z,13.00
2023-01-07T19:44:55.030Z,14.83
2023-01-07T19:47:25.385Z,14.03
2023-01-07T19:52:24.476Z,10.97
2023-01-07T19:54:54.315Z,14.23
2023-01-07T19:57:24.015Z,14.37
2023-01-07T19:59:53.902Z,14.33
2023-01-07T20:02:24.709Z,14.20
2023-01-07T20:04:54.808Z,12.43
2023-01-07T20:07:24.660Z,13.93
2023-01-07T20:09:54.444Z,13.27
2023-01-07T20:12:24.981Z,12.50
2023-01-07T20:14:54.848Z,11.97
2023-01-07T20:17:25.065Z,11.87
2023-01-07T20:19:54.899Z,11.60
2023-01-07T20:22:24.785Z,13.32
2023-01-07T20:24:54.595Z,13.43
2023-01-07T20:27:24.560Z,12.33
2023-01-07T20:29:54.449Z,14.90
2023-01-07T20:32:24.451Z,17.27
2023-01-07T20:34:54.555Z,17.52
2023-01-07T20:37:26.132Z,15.37
2023-01-07T20:39:56.282Z,14.77
2023-01-07T20:42:26.848Z,14.67
2023-01-07T20:44:57.228Z,15.72
2023-01-07T20:47:27.707Z,15.00
2023-01-07T20:49:57.799Z,16.82
2023-01-07T20:52:27.743Z,15.73
2023-01-07T20:55:00.205Z,14.63
2023-01-07T20:57:35.713Z,14.10
2023-01-07T21:00:07.002Z,14.90
2023-01-07T21:02:37.282Z,14.77
2023-01-07T21:05:12.520Z,13.27
2023-01-07T21:07:49.091Z,14.33
2023-01-07T21:10:22.221Z,16.27
2023-01-07T21:12:59.074Z,16.30
2023-01-07T21:15:31.201Z,17.80
2023-01-07T21:18:01.358Z,17.27
2023-01-07T21:20:32.938Z,18.17
2023-01-07T21:23:05.558Z,17.27
2023-01-07T21:25:37.052Z,20.47
2023-01-07T21:28:10.116Z,21.43
2023-01-07T21:30:53.552Z,17.93
2023-01-07T21:33:23.323Z,19.70
2023-01-07T21:35:53.163Z,22.23
2023-01-07T21:38:24.750Z,18.02
2023-01-07T21:40:54.532Z,18.83
2023-01-07T21:43:24.305Z,17.20
2023-01-07T21:45:54.218Z,17.07
2023-01-07T21:48:23.750Z,17.80
2023-01-07T21:50:53.615Z,16.37
2023-01-07T21:53:23.404Z,15.95
2023-01-07T21:55:53.202Z,17.40
2023-01-07T21:58:22.972Z,17.77
2023-01-07T22:00:54.400Z,17.07
2023-01-07T22:03:24.273Z,16.00
2023-01-07T22:05:58.738Z,16.83
2023-01-07T22:08:28.720Z,17.77
2023-01-07T22:10:58.567Z,21.43
2023-01-07T22:13:28.657Z,21.55
2023-01-07T22:15:58.476Z,20.37
2023-01-07T22:18:28.328Z,20.60
2023-01-07T22:20:58.199Z,20.27
2023-01-07T22:23:27.993Z,20.07
2023-01-07T22:26:05.817Z,18.03
2023-01-07T22:28:38.012Z,18.97
2023-01-07T22:31:16.884Z,18.40
2023-01-07T22:33:46.743Z,17.30
2023-01-07T22:36:19.512Z,20.43
2023-01-07T22:38:50.345Z,17.67
2023-01-07T22:41:20.144Z,18.00
2023-01-07T22:43:50.462Z,18.15
2023-01-07T22:46:26.107Z,17.60
2023-01-07T22:48:55.918Z,18.13
2023-01-07T22:51:28.865Z,19.27
2023-01-07T22:54:01.193Z,18.95
2023-01-07T22:56:31.306Z,19.23
2023-01-07T22:59:01.053Z,18.13
2023-01-07T23:01:31.986Z,17.65
2023-01-07T23:04:01.943Z,17.27
2023-01-07T23:06:32.422Z,16.55
2023-01-07T23:09:02.292Z,17.97
2023-01-07T23:11:48.383Z,17.48
2023-01-07T23:14:20.624Z,15.27
2023-01-07T23:16:51.388Z,16.27
2023-01-07T23:19:22.079Z,15.83
2023-01-07T23:21:54.066Z,15.75
2023-01-07T23:24:24.554Z,17.57
2023-01-07T23:26:55.269Z,18.27
2023-01-07T23:29:24.933Z,18.50
2023-01-07T23:31:54.806Z,16.87
2023-01-07T23:34:24.320Z,16.80
2023-01-07T23:36:54.094Z,16.50
2023-01-07T23:39:23.572Z,15.97
2023-01-07T23:41:53.376Z,15.63
2023-01-07T23:44:22.914Z,16.63
2023-01-07T23:46:52.748Z,16.27
2023-01-07T23:49:22.351Z,16.40
2023-01-07T23:51:54.209Z,15.93
2023-01-07T23:54:24.312Z,16.77
2023-01-07T23:56:54.119Z,15.07
2023-01-07T23:59:23.691Z,15.37
